sensor_id;sensor_type;location;lat;lon;timestamp;P1;durP1;ratioP1;P2;durP2;ratioP2
58222;SDS011;44020;50.890;15.796;2023-09-08T00:00:29;8.20;;;4.90;;
58222;SDS011;44020;50.890;15.796;2023-09-08T00:03:17;7.10;;;4.90;;
58222;SDS011;44020;50.890;15.796;2023-09-08T00:05:45;7.00;;;5.10;;
58222;SDS011;44020;50.890;15.796;2023-09-08T00:08:12;8.30;;;5.10;;
58222;SDS011;44020;50.890;15.796;2023-09-08T00:10:40;7.00;;;4.70;;
58222;SDS011;44020;50.890;15.796;2023-09-08T00:13:08;6.70;;;4.80;;
58222;SDS011;44020;50.890;15.796;2023-09-08T00:15:36;7.40;;;5.30;;
58222;SDS011;44020;50.890;15.796;2023-09-08T00:18:03;12.30;;;6.10;;
58222;SDS011;44020;50.890;15.796;2023-09-08T00:20:31;9.00;;;6.20;;
58222;SDS011;44020;50.890;15.796;2023-09-08T00:22:59;9.50;;;5.40;;
58222;SDS011;44020;50.890;15.796;2023-09-08T00:25:27;5.50;;;4.20;;
58222;SDS011;44020;50.890;15.796;2023-09-08T00:27:54;6.70;;;4.80;;
58222;SDS011;44020;50.890;15.796;2023-09-08T00:30:22;7.20;;;4.60;;
58222;SDS011;44020;50.890;15.796;2023-09-08T00:32:50;7.30;;;4.80;;
58222;SDS011;44020;50.890;15.796;2023-09-08T00:35:18;6.70;;;4.90;;
58222;SDS011;44020;50.890;15.796;2023-09-08T00:37:46;6.40;;;5.00;;
58222;SDS011;44020;50.890;15.796;2023-09-08T00:40:14;7.30;;;5.10;;
58222;SDS011;44020;50.890;15.796;2023-09-08T00:42:41;7.90;;;5.40;;
58222;SDS011;44020;50.890;15.796;2023-09-08T00:45:09;6.60;;;5.10;;
58222;SDS011;44020;50.890;15.796;2023-09-08T00:47:37;9.90;;;5.40;;
58222;SDS011;44020;50.890;15.796;2023-09-08T00:50:05;9.10;;;5.10;;
58222;SDS011;44020;50.890;15.796;2023-09-08T00:52:33;9.70;;;5.60;;
58222;SDS011;44020;50.890;15.796;2023-09-08T00:55:01;9.70;;;5.90;;
58222;SDS011;44020;50.890;15.796;2023-09-08T00:57:38;7.20;;;5.60;;
58222;SDS011;44020;50.890;15.796;2023-09-08T01:00:06;7.70;;;5.40;;
58222;SDS011;44020;50.890;15.796;2023-09-08T01:02:34;9.60;;;5.50;;
58222;SDS011;44020;50.890;15.796;2023-09-08T01:05:01;7.60;;;5.20;;
58222;SDS011;44020;50.890;15.796;2023-09-08T01:07:33;10.70;;;5.40;;
58222;SDS011;44020;50.890;15.796;2023-09-08T01:10:13;6.00;;;4.60;;
58222;SDS011;44020;50.890;15.796;2023-09-08T01:12:41;9.50;;;5.60;;
58222;SDS011;44020;50.890;15.796;2023-09-08T01:15:12;6.10;;;4.50;;
58222;SDS011;44020;50.890;15.796;2023-09-08T01:17:48;6.80;;;5.30;;
58222;SDS011;44020;50.890;15.796;2023-09-08T01:20:19;7.00;;;5.30;;
58222;SDS011;44020;50.890;15.796;2023-09-08T01:23:11;7.80;;;5.10;;
58222;SDS011;44020;50.890;15.796;2023-09-08T01:25:52;7.00;;;5.00;;
58222;SDS011;44020;50.890;15.796;2023-09-08T01:28:45;6.90;;;4.50;;
58222;SDS011;44020;50.890;15.796;2023-09-08T01:31:16;7.20;;;5.20;;
58222;SDS011;44020;50.890;15.796;2023-09-08T01:33:45;6.60;;;4.50;;
58222;SDS011;44020;50.890;15.796;2023-09-08T01:36:13;7.30;;;5.30;;
58222;SDS011;44020;50.890;15.796;2023-09-08T01:38:41;6.60;;;4.90;;
58222;SDS011;44020;50.890;15.796;2023-09-08T01:41:09;8.10;;;5.20;;
58222;SDS011;44020;50.890;15.796;2023-09-08T01:43:37;7.20;;;5.10;;
58222;SDS011;44020;50.890;15.796;2023-09-08T01:46:04;9.00;;;5.60;;
58222;SDS011;44020;50.890;15.796;2023-09-08T01:48:32;7.20;;;5.50;;
58222;SDS011;44020;50.890;15.796;2023-09-08T01:50:59;7.80;;;5.40;;
58222;SDS011;44020;50.890;15.796;2023-09-08T01:53:27;9.10;;;5.30;;
58222;SDS011;44020;50.890;15.796;2023-09-08T01:55:54;6.20;;;4.60;;
58222;SDS011;44020;50.890;15.796;2023-09-08T01:58:22;6.90;;;4.90;;
58222;SDS011;44020;50.890;15.796;2023-09-08T02:00:50;7.80;;;5.20;;
58222;SDS011;44020;50.890;15.796;2023-09-08T02:03:21;7.70;;;5.10;;
58222;SDS011;44020;50.890;15.796;2023-09-08T02:05:49;7.80;;;5.30;;
58222;SDS011;44020;50.890;15.796;2023-09-08T02:08:16;9.40;;;5.10;;
58222;SDS011;44020;50.890;15.796;2023-09-08T02:10:43;8.50;;;4.80;;
58222;SDS011;44020;50.890;15.796;2023-09-08T02:13:11;8.90;;;5.20;;
58222;SDS011;44020;50.890;15.796;2023-09-08T02:15:39;7.10;;;4.40;;
58222;SDS011;44020;50.890;15.796;2023-09-08T02:18:06;6.30;;;4.40;;
58222;SDS011;44020;50.890;15.796;2023-09-08T02:20:35;6.90;;;4.30;;
58222;SDS011;44020;50.890;15.796;2023-09-08T02:23:04;5.60;;;4.40;;
58222;SDS011;44020;50.890;15.796;2023-09-08T02:25:33;8.00;;;4.00;;
58222;SDS011;44020;50.890;15.796;2023-09-08T02:28:00;8.00;;;4.20;;
58222;SDS011;44020;50.890;15.796;2023-09-08T02:30:28;5.40;;;4.10;;
58222;SDS011;44020;50.890;15.796;2023-09-08T02:32:56;9.70;;;4.60;;
58222;SDS011;44020;50.890;15.796;2023-09-08T02:35:23;8.90;;;5.40;;
58222;SDS011;44020;50.890;15.796;2023-09-08T02:37:51;6.30;;;4.70;;
58222;SDS011;44020;50.890;15.796;2023-09-08T02:40:19;7.30;;;4.40;;
58222;SDS011;44020;50.890;15.796;2023-09-08T02:42:47;8.00;;;4.80;;
58222;SDS011;44020;50.890;15.796;2023-09-08T02:45:15;9.10;;;4.40;;
58222;SDS011;44020;50.890;15.796;2023-09-08T02:47:42;6.80;;;4.60;;
58222;SDS011;44020;50.890;15.796;2023-09-08T02:50:09;6.30;;;4.40;;
58222;SDS011;44020;50.890;15.796;2023-09-08T02:52:37;5.30;;;3.80;;
58222;SDS011;44020;50.890;15.796;2023-09-08T02:55:05;5.20;;;3.50;;
58222;SDS011;44020;50.890;15.796;2023-09-08T02:57:33;4.80;;;3.20;;
58222;SDS011;44020;50.890;15.796;2023-09-08T03:00:01;6.30;;;3.70;;
58222;SDS011;44020;50.890;15.796;2023-09-08T03:02:30;4.80;;;3.50;;
58222;SDS011;44020;50.890;15.796;2023-09-08T03:04:57;5.90;;;3.60;;
58222;SDS011;44020;50.890;15.796;2023-09-08T03:07:25;4.80;;;3.60;;
58222;SDS011;44020;50.890;15.796;2023-09-08T03:09:53;6.40;;;4.00;;
58222;SDS011;44020;50.890;15.796;2023-09-08T03:12:21;6.60;;;3.90;;
58222;SDS011;44020;50.890;15.796;2023-09-08T03:14:49;7.00;;;3.90;;
58222;SDS011;44020;50.890;15.796;2023-09-08T03:17:17;6.30;;;3.90;;
58222;SDS011;44020;50.890;15.796;2023-09-08T03:19:45;6.20;;;4.30;;
58222;SDS011;44020;50.890;15.796;2023-09-08T03:22:13;5.90;;;4.50;;
58222;SDS011;44020;50.890;15.796;2023-09-08T03:24:41;5.30;;;3.80;;
58222;SDS011;44020;50.890;15.796;2023-09-08T03:27:08;6.80;;;4.10;;
58222;SDS011;44020;50.890;15.796;2023-09-08T03:29:39;6.20;;;4.20;;
58222;SDS011;44020;50.890;15.796;2023-09-08T03:32:06;7.70;;;4.00;;
58222;SDS011;44020;50.890;15.796;2023-09-08T03:34:34;7.20;;;4.20;;
58222;SDS011;44020;50.890;15.796;2023-09-08T03:37:01;6.20;;;4.20;;
58222;SDS011;44020;50.890;15.796;2023-09-08T03:39:29;5.60;;;4.20;;
58222;SDS011;44020;50.890;15.796;2023-09-08T03:41:56;6.10;;;3.60;;
58222;SDS011;44020;50.890;15.796;2023-09-08T03:44:24;5.20;;;3.60;;
58222;SDS011;44020;50.890;15.796;2023-09-08T03:46:51;5.20;;;4.10;;
58222;SDS011;44020;50.890;15.796;2023-09-08T03:49:19;6.30;;;3.60;;
58222;SDS011;44020;50.890;15.796;2023-09-08T03:51:47;5.90;;;4.00;;
58222;SDS011;44020;50.890;15.796;2023-09-08T03:54:14;6.60;;;4.20;;
58222;SDS011;44020;50.890;15.796;2023-09-08T03:56:42;6.40;;;4.00;;
58222;SDS011;44020;50.890;15.796;2023-09-08T03:59:12;6.40;;;4.20;;
58222;SDS011;44020;50.890;15.796;2023-09-08T04:01:40;7.90;;;5.00;;
58222;SDS011;44020;50.890;15.796;2023-09-08T04:04:07;6.50;;;5.00;;
58222;SDS011;44020;50.890;15.796;2023-09-08T04:06:35;8.20;;;5.80;;
58222;SDS011;44020;50.890;15.796;2023-09-08T04:09:03;8.50;;;5.50;;
58222;SDS011;44020;50.890;15.796;2023-09-08T04:11:31;8.10;;;5.50;;
58222;SDS011;44020;50.890;15.796;2023-09-08T04:13:59;9.20;;;4.90;;
58222;SDS011;44020;50.890;15.796;2023-09-08T04:16:26;9.70;;;5.90;;
58222;SDS011;44020;50.890;15.796;2023-09-08T04:18:53;8.60;;;5.10;;
58222;SDS011;44020;50.890;15.796;2023-09-08T04:21:21;9.00;;;6.40;;
58222;SDS011;44020;50.890;15.796;2023-09-08T04:23:49;12.70;;;6.60;;
58222;SDS011;44020;50.890;15.796;2023-09-08T04:26:17;7.10;;;5.40;;
58222;SDS011;44020;50.890;15.796;2023-09-08T04:28:44;7.90;;;5.60;;
58222;SDS011;44020;50.890;15.796;2023-09-08T04:31:12;8.40;;;5.00;;
58222;SDS011;44020;50.890;15.796;2023-09-08T04:33:47;6.50;;;4.20;;
58222;SDS011;44020;50.890;15.796;2023-09-08T04:36:15;7.30;;;4.90;;
58222;SDS011;44020;50.890;15.796;2023-09-08T04:38:42;8.10;;;5.00;;
58222;SDS011;44020;50.890;15.796;2023-09-08T04:41:11;6.80;;;4.80;;
58222;SDS011;44020;50.890;15.796;2023-09-08T04:43:39;8.90;;;5.50;;
58222;SDS011;44020;50.890;15.796;2023-09-08T04:46:07;10.70;;;5.20;;
58222;SDS011;44020;50.890;15.796;2023-09-08T04:48:35;8.50;;;5.30;;
58222;SDS011;44020;50.890;15.796;2023-09-08T04:51:02;7.70;;;4.90;;
58222;SDS011;44020;50.890;15.796;2023-09-08T04:53:30;7.80;;;5.20;;
58222;SDS011;44020;50.890;15.796;2023-09-08T04:55:57;8.30;;;5.20;;
58222;SDS011;44020;50.890;15.796;2023-09-08T04:58:25;9.40;;;5.20;;
58222;SDS011;44020;50.890;15.796;2023-09-08T05:00:52;8.30;;;5.10;;
58222;SDS011;44020;50.890;15.796;2023-09-08T05:03:20;8.30;;;5.60;;
58222;SDS011;44020;50.890;15.796;2023-09-08T05:05:48;9.20;;;5.80;;
58222;SDS011;44020;50.890;15.796;2023-09-08T05:08:27;9.10;;;5.70;;
58222;SDS011;44020;50.890;15.796;2023-09-08T05:10:55;11.70;;;6.00;;
58222;SDS011;44020;50.890;15.796;2023-09-08T05:13:23;10.00;;;6.20;;
58222;SDS011;44020;50.890;15.796;2023-09-08T05:15:53;9.80;;;6.30;;
58222;SDS011;44020;50.890;15.796;2023-09-08T05:18:26;9.40;;;5.40;;
58222;SDS011;44020;50.890;15.796;2023-09-08T05:20:54;8.10;;;4.90;;
58222;SDS011;44020;50.890;15.796;2023-09-08T05:23:22;8.90;;;5.40;;
58222;SDS011;44020;50.890;15.796;2023-09-08T05:25:49;9.60;;;5.90;;
58222;SDS011;44020;50.890;15.796;2023-09-08T05:28:17;9.80;;;5.20;;
58222;SDS011;44020;50.890;15.796;2023-09-08T05:30:45;9.10;;;5.80;;
58222;SDS011;44020;50.890;15.796;2023-09-08T05:33:12;7.50;;;5.00;;
58222;SDS011;44020;50.890;15.796;2023-09-08T05:35:39;8.60;;;5.50;;
58222;SDS011;44020;50.890;15.796;2023-09-08T05:38:07;9.70;;;5.70;;
58222;SDS011;44020;50.890;15.796;2023-09-08T05:40:35;9.50;;;5.40;;
58222;SDS011;44020;50.890;15.796;2023-09-08T05:43:03;8.20;;;5.00;;
58222;SDS011;44020;50.890;15.796;2023-09-08T05:45:31;7.50;;;5.30;;
58222;SDS011;44020;50.890;15.796;2023-09-08T05:48:00;7.20;;;5.10;;
58222;SDS011;44020;50.890;15.796;2023-09-08T05:50:32;6.60;;;4.60;;
58222;SDS011;44020;50.890;15.796;2023-09-08T05:53:00;6.80;;;4.80;;
58222;SDS011;44020;50.890;15.796;2023-09-08T05:55:28;6.60;;;4.90;;
58222;SDS011;44020;50.890;15.796;2023-09-08T05:57:56;7.50;;;4.50;;
58222;SDS011;44020;50.890;15.796;2023-09-08T06:00:23;8.70;;;5.10;;
58222;SDS011;44020;50.890;15.796;2023-09-08T06:02:51;7.30;;;5.00;;
58222;SDS011;44020;50.890;15.796;2023-09-08T06:05:19;10.40;;;5.60;;
58222;SDS011;44020;50.890;15.796;2023-09-08T06:07:46;9.40;;;6.20;;
58222;SDS011;44020;50.890;15.796;2023-09-08T06:10:16;9.80;;;5.90;;
58222;SDS011;44020;50.890;15.796;2023-09-08T06:12:43;9.80;;;6.00;;
58222;SDS011;44020;50.890;15.796;2023-09-08T06:15:11;10.00;;;6.50;;
58222;SDS011;44020;50.890;15.796;2023-09-08T06:17:39;12.30;;;6.00;;
58222;SDS011;44020;50.890;15.796;2023-09-08T06:20:06;10.60;;;6.40;;
58222;SDS011;44020;50.890;15.796;2023-09-08T06:22:35;9.10;;;6.50;;
58222;SDS011;44020;50.890;15.796;2023-09-08T06:25:03;9.00;;;6.10;;
58222;SDS011;44020;50.890;15.796;2023-09-08T06:27:31;8.50;;;6.10;;
58222;SDS011;44020;50.890;15.796;2023-09-08T06:29:59;9.50;;;5.60;;
58222;SDS011;44020;50.890;15.796;2023-09-08T06:32:26;8.10;;;5.90;;
58222;SDS011;44020;50.890;15.796;2023-09-08T06:34:54;9.50;;;6.40;;
58222;SDS011;44020;50.890;15.796;2023-09-08T06:37:22;8.50;;;5.80;;
58222;SDS011;44020;50.890;15.796;2023-09-08T06:39:49;10.60;;;6.30;;
58222;SDS011;44020;50.890;15.796;2023-09-08T06:42:17;11.10;;;6.30;;
58222;SDS011;44020;50.890;15.796;2023-09-08T06:44:44;9.00;;;6.20;;
58222;SDS011;44020;50.890;15.796;2023-09-08T06:47:12;10.80;;;6.70;;
58222;SDS011;44020;50.890;15.796;2023-09-08T06:49:40;7.60;;;5.70;;
58222;SDS011;44020;50.890;15.796;2023-09-08T06:52:08;11.80;;;6.30;;
58222;SDS011;44020;50.890;15.796;2023-09-08T06:54:35;10.30;;;6.50;;
58222;SDS011;44020;50.890;15.796;2023-09-08T06:57:02;11.70;;;6.40;;
58222;SDS011;44020;50.890;15.796;2023-09-08T06:59:30;9.90;;;5.90;;
58222;SDS011;44020;50.890;15.796;2023-09-08T07:01:57;10.00;;;6.50;;
58222;SDS011;44020;50.890;15.796;2023-09-08T07:04:25;8.80;;;6.80;;
58222;SDS011;44020;50.890;15.796;2023-09-08T07:06:52;9.90;;;6.50;;
58222;SDS011;44020;50.890;15.796;2023-09-08T07:09:21;10.50;;;6.60;;
58222;SDS011;44020;50.890;15.796;2023-09-08T07:11:49;11.70;;;6.60;;
58222;SDS011;44020;50.890;15.796;2023-09-08T07:14:16;8.10;;;5.90;;
58222;SDS011;44020;50.890;15.796;2023-09-08T07:16:43;8.80;;;6.70;;
58222;SDS011;44020;50.890;15.796;2023-09-08T07:19:10;10.00;;;6.10;;
58222;SDS011;44020;50.890;15.796;2023-09-08T07:21:38;10.40;;;6.40;;
58222;SDS011;44020;50.890;15.796;2023-09-08T07:24:05;13.50;;;6.00;;
58222;SDS011;44020;50.890;15.796;2023-09-08T07:26:33;8.90;;;5.50;;
58222;SDS011;44020;50.890;15.796;2023-09-08T07:29:00;8.60;;;5.10;;
58222;SDS011;44020;50.890;15.796;2023-09-08T07:31:28;7.30;;;4.70;;
58222;SDS011;44020;50.890;15.796;2023-09-08T07:33:55;8.60;;;5.00;;
58222;SDS011;44020;50.890;15.796;2023-09-08T07:36:23;8.80;;;4.80;;
58222;SDS011;44020;50.890;15.796;2023-09-08T07:38:50;7.30;;;5.10;;
58222;SDS011;44020;50.890;15.796;2023-09-08T07:41:18;6.60;;;4.70;;
58222;SDS011;44020;50.890;15.796;2023-09-08T07:43:45;8.00;;;4.60;;
58222;SDS011;44020;50.890;15.796;2023-09-08T07:46:13;7.90;;;5.40;;
58222;SDS011;44020;50.890;15.796;2023-09-08T07:48:40;10.50;;;5.40;;
58222;SDS011;44020;50.890;15.796;2023-09-08T07:51:08;8.00;;;5.20;;
58222;SDS011;44020;50.890;15.796;2023-09-08T07:53:35;7.70;;;5.20;;
58222;SDS011;44020;50.890;15.796;2023-09-08T07:56:02;7.60;;;5.00;;
58222;SDS011;44020;50.890;15.796;2023-09-08T07:58:30;9.60;;;5.60;;
58222;SDS011;44020;50.890;15.796;2023-09-08T08:00:58;11.90;;;5.40;;
58222;SDS011;44020;50.890;15.796;2023-09-08T08:03:25;9.40;;;5.30;;
58222;SDS011;44020;50.890;15.796;2023-09-08T08:05:53;7.00;;;5.20;;
58222;SDS011;44020;50.890;15.796;2023-09-08T08:08:23;7.00;;;5.80;;
58222;SDS011;44020;50.890;15.796;2023-09-08T08:10:50;7.90;;;5.20;;
58222;SDS011;44020;50.890;15.796;2023-09-08T08:13:17;10.80;;;5.70;;
58222;SDS011;44020;50.890;15.796;2023-09-08T08:15:45;7.50;;;5.20;;
58222;SDS011;44020;50.890;15.796;2023-09-08T08:18:14;8.30;;;5.20;;
58222;SDS011;44020;50.890;15.796;2023-09-08T08:20:42;10.30;;;4.90;;
58222;SDS011;44020;50.890;15.796;2023-09-08T08:23:12;7.80;;;5.20;;
58222;SDS011;44020;50.890;15.796;2023-09-08T08:25:40;8.30;;;5.10;;
58222;SDS011;44020;50.890;15.796;2023-09-08T08:28:08;8.20;;;5.10;;
58222;SDS011;44020;50.890;15.796;2023-09-08T08:30:35;8.30;;;5.00;;
58222;SDS011;44020;50.890;15.796;2023-09-08T08:33:03;6.30;;;4.60;;
58222;SDS011;44020;50.890;15.796;2023-09-08T08:35:31;6.00;;;4.30;;
58222;SDS011;44020;50.890;15.796;2023-09-08T08:37:58;6.00;;;4.20;;
58222;SDS011;44020;50.890;15.796;2023-09-08T08:40:30;6.50;;;4.40;;
58222;SDS011;44020;50.890;15.796;2023-09-08T08:42:57;7.00;;;4.20;;
58222;SDS011;44020;50.890;15.796;2023-09-08T08:45:26;6.00;;;4.00;;
58222;SDS011;44020;50.890;15.796;2023-09-08T08:47:55;5.70;;;3.90;;
58222;SDS011;44020;50.890;15.796;2023-09-08T08:50:24;7.60;;;4.20;;
58222;SDS011;44020;50.890;15.796;2023-09-08T08:52:52;9.20;;;4.70;;
58222;SDS011;44020;50.890;15.796;2023-09-08T08:55:19;8.10;;;5.00;;
58222;SDS011;44020;50.890;15.796;2023-09-08T08:57:50;6.50;;;4.60;;
58222;SDS011;44020;50.890;15.796;2023-09-08T09:00:19;8.50;;;4.40;;
58222;SDS011;44020;50.890;15.796;2023-09-08T09:02:47;7.50;;;4.70;;
58222;SDS011;44020;50.890;15.796;2023-09-08T09:05:18;6.90;;;4.80;;
58222;SDS011;44020;50.890;15.796;2023-09-08T09:07:46;6.20;;;4.30;;
58222;SDS011;44020;50.890;15.796;2023-09-08T09:10:15;7.20;;;4.40;;
58222;SDS011;44020;50.890;15.796;2023-09-08T09:12:43;8.60;;;4.40;;
58222;SDS011;44020;50.890;15.796;2023-09-08T09:15:11;6.10;;;3.90;;
58222;SDS011;44020;50.890;15.796;2023-09-08T09:17:39;9.00;;;4.50;;
58222;SDS011;44020;50.890;15.796;2023-09-08T09:22:46;11.40;;;4.50;;
58222;SDS011;44020;50.890;15.796;2023-09-08T09:25:27;7.00;;;4.00;;
58222;SDS011;44020;50.890;15.796;2023-09-08T09:27:57;5.10;;;3.90;;
58222;SDS011;44020;50.890;15.796;2023-09-08T09:30:26;5.60;;;3.90;;
58222;SDS011;44020;50.890;15.796;2023-09-08T09:33:03;5.50;;;3.80;;
58222;SDS011;44020;50.890;15.796;2023-09-08T09:35:41;6.90;;;3.60;;
58222;SDS011;44020;50.890;15.796;2023-09-08T09:38:10;5.20;;;3.90;;
58222;SDS011;44020;50.890;15.796;2023-09-08T09:40:38;5.60;;;3.80;;
58222;SDS011;44020;50.890;15.796;2023-09-08T09:43:07;6.10;;;4.20;;
58222;SDS011;44020;50.890;15.796;2023-09-08T09:45:36;5.40;;;3.50;;
58222;SDS011;44020;50.890;15.796;2023-09-08T09:48:04;5.30;;;4.10;;
58222;SDS011;44020;50.890;15.796;2023-09-08T09:50:33;7.20;;;3.60;;
58222;SDS011;44020;50.890;15.796;2023-09-08T09:53:07;11.70;;;4.30;;
58222;SDS011;44020;50.890;15.796;2023-09-08T09:55:37;5.80;;;3.90;;
58222;SDS011;44020;50.890;15.796;2023-09-08T09:58:06;6.20;;;4.10;;
58222;SDS011;44020;50.890;15.796;2023-09-08T10:00:35;5.70;;;4.20;;
58222;SDS011;44020;50.890;15.796;2023-09-08T10:03:04;9.60;;;4.20;;
58222;SDS011;44020;50.890;15.796;2023-09-08T10:05:32;5.50;;;3.70;;
58222;SDS011;44020;50.890;15.796;2023-09-08T10:08:01;6.50;;;4.00;;
58222;SDS011;44020;50.890;15.796;2023-09-08T10:10:28;5.20;;;4.00;;
58222;SDS011;44020;50.890;15.796;2023-09-08T10:12:57;5.00;;;3.80;;
58222;SDS011;44020;50.890;15.796;2023-09-08T10:15:33;4.90;;;3.60;;
58222;SDS011;44020;50.890;15.796;2023-09-08T10:18:03;6.40;;;4.30;;
58222;SDS011;44020;50.890;15.796;2023-09-08T10:20:32;7.30;;;3.90;;
58222;SDS011;44020;50.890;15.796;2023-09-08T10:23:06;4.70;;;3.40;;
58222;SDS011;44020;50.890;15.796;2023-09-08T10:25:43;4.90;;;3.70;;
58222;SDS011;44020;50.890;15.796;2023-09-08T10:28:16;5.30;;;3.90;;
58222;SDS011;44020;50.890;15.796;2023-09-08T10:30:44;6.80;;;4.20;;
58222;SDS011;44020;50.890;15.796;2023-09-08T10:33:13;6.90;;;3.80;;
58222;SDS011;44020;50.890;15.796;2023-09-08T10:35:42;5.90;;;4.10;;
58222;SDS011;44020;50.890;15.796;2023-09-08T10:38:23;5.20;;;3.80;;
58222;SDS011;44020;50.890;15.796;2023-09-08T10:40:52;5.50;;;3.80;;
58222;SDS011;44020;50.890;15.796;2023-09-08T10:43:20;4.90;;;3.90;;
58222;SDS011;44020;50.890;15.796;2023-09-08T10:45:48;7.00;;;4.00;;
58222;SDS011;44020;50.890;15.796;2023-09-08T10:48:15;6.70;;;4.00;;
58222;SDS011;44020;50.890;15.796;2023-09-08T10:50:43;9.50;;;4.20;;
58222;SDS011;44020;50.890;15.796;2023-09-08T10:53:14;7.00;;;3.90;;
58222;SDS011;44020;50.890;15.796;2023-09-08T10:55:46;5.90;;;4.40;;
58222;SDS011;44020;50.890;15.796;2023-09-08T10:58:18;5.90;;;4.00;;
58222;SDS011;44020;50.890;15.796;2023-09-08T11:00:47;5.30;;;3.90;;
58222;SDS011;44020;50.890;15.796;2023-09-08T11:06:08;7.70;;;4.00;;
58222;SDS011;44020;50.890;15.796;2023-09-08T11:08:38;5.60;;;4.30;;
58222;SDS011;44020;50.890;15.796;2023-09-08T11:11:09;4.70;;;3.70;;
58222;SDS011;44020;50.890;15.796;2023-09-08T11:13:38;8.90;;;4.40;;
58222;SDS011;44020;50.890;15.796;2023-09-08T11:16:06;6.70;;;4.40;;
58222;SDS011;44020;50.890;15.796;2023-09-08T11:18:35;7.30;;;4.30;;
58222;SDS011;44020;50.890;15.796;2023-09-08T11:21:04;5.90;;;4.30;;
58222;SDS011;44020;50.890;15.796;2023-09-08T11:23:35;6.60;;;4.40;;
58222;SDS011;44020;50.890;15.796;2023-09-08T11:26:03;6.10;;;4.20;;
58222;SDS011;44020;50.890;15.796;2023-09-08T11:28:31;5.30;;;3.80;;
58222;SDS011;44020;50.890;15.796;2023-09-08T11:30:59;4.90;;;4.00;;
58222;SDS011;44020;50.890;15.796;2023-09-08T11:33:27;5.40;;;4.30;;
58222;SDS011;44020;50.890;15.796;2023-09-08T11:35:54;6.90;;;5.20;;
58222;SDS011;44020;50.890;15.796;2023-09-08T11:38:25;5.00;;;4.20;;
58222;SDS011;44020;50.890;15.796;2023-09-08T11:40:53;7.00;;;4.50;;
58222;SDS011;44020;50.890;15.796;2023-09-08T11:43:25;6.00;;;4.40;;
58222;SDS011;44020;50.890;15.796;2023-09-08T11:45:59;6.70;;;4.00;;
58222;SDS011;44020;50.890;15.796;2023-09-08T11:48:27;5.90;;;4.50;;
58222;SDS011;44020;50.890;15.796;2023-09-08T11:50:55;8.90;;;4.40;;
58222;SDS011;44020;50.890;15.796;2023-09-08T11:53:22;5.10;;;3.90;;
58222;SDS011;44020;50.890;15.796;2023-09-08T11:55:50;5.80;;;4.10;;
58222;SDS011;44020;50.890;15.796;2023-09-08T11:58:22;6.30;;;4.40;;
58222;SDS011;44020;50.890;15.796;2023-09-08T12:00:56;5.20;;;4.20;;
58222;SDS011;44020;50.890;15.796;2023-09-08T12:03:25;6.00;;;3.90;;
58222;SDS011;44020;50.890;15.796;2023-09-08T12:05:52;6.10;;;3.90;;
58222;SDS011;44020;50.890;15.796;2023-09-08T12:08:24;6.50;;;3.70;;
58222;SDS011;44020;50.890;15.796;2023-09-08T12:10:53;7.00;;;4.00;;
58222;SDS011;44020;50.890;15.796;2023-09-08T12:13:22;10.20;;;4.10;;
58222;SDS011;44020;50.890;15.796;2023-09-08T12:15:52;4.70;;;3.70;;
58222;SDS011;44020;50.890;15.796;2023-09-08T12:18:36;6.10;;;3.20;;
58222;SDS011;44020;50.890;15.796;2023-09-08T12:21:07;4.70;;;3.30;;
58222;SDS011;44020;50.890;15.796;2023-09-08T12:23:35;14.10;;;3.90;;
58222;SDS011;44020;50.890;15.796;2023-09-08T12:26:18;5.60;;;3.90;;
58222;SDS011;44020;50.890;15.796;2023-09-08T12:28:46;5.40;;;3.20;;
58222;SDS011;44020;50.890;15.796;2023-09-08T12:31:14;4.30;;;2.90;;
58222;SDS011;44020;50.890;15.796;2023-09-08T12:33:42;4.40;;;3.10;;
58222;SDS011;44020;50.890;15.796;2023-09-08T12:36:17;4.00;;;2.70;;
58222;SDS011;44020;50.890;15.796;2023-09-08T12:38:52;4.20;;;2.50;;
58222;SDS011;44020;50.890;15.796;2023-09-08T12:41:27;4.80;;;2.70;;
58222;SDS011;44020;50.890;15.796;2023-09-08T12:43:54;5.30;;;3.00;;
58222;SDS011;44020;50.890;15.796;2023-09-08T12:46:22;3.80;;;2.80;;
58222;SDS011;44020;50.890;15.796;2023-09-08T12:49:02;4.90;;;3.10;;
58222;SDS011;44020;50.890;15.796;2023-09-08T12:51:29;4.60;;;2.90;;
58222;SDS011;44020;50.890;15.796;2023-09-08T12:53:57;4.90;;;3.20;;
58222;SDS011;44020;50.890;15.796;2023-09-08T12:56:25;5.00;;;2.80;;
58222;SDS011;44020;50.890;15.796;2023-09-08T12:58:52;3.30;;;2.70;;
58222;SDS011;44020;50.890;15.796;2023-09-08T13:01:22;8.10;;;3.20;;
58222;SDS011;44020;50.890;15.796;2023-09-08T13:03:50;4.80;;;3.40;;
58222;SDS011;44020;50.890;15.796;2023-09-08T13:06:17;10.60;;;3.20;;
58222;SDS011;44020;50.890;15.796;2023-09-08T13:08:45;4.20;;;3.10;;
58222;SDS011;44020;50.890;15.796;2023-09-08T13:11:12;4.50;;;2.80;;
58222;SDS011;44020;50.890;15.796;2023-09-08T13:13:42;3.60;;;2.90;;
58222;SDS011;44020;50.890;15.796;2023-09-08T13:16:13;4.70;;;3.40;;
58222;SDS011;44020;50.890;15.796;2023-09-08T13:18:40;4.40;;;2.70;;
58222;SDS011;44020;50.890;15.796;2023-09-08T13:21:08;5.20;;;2.90;;
58222;SDS011;44020;50.890;15.796;2023-09-08T13:23:35;5.00;;;3.40;;
58222;SDS011;44020;50.890;15.796;2023-09-08T13:26:02;3.60;;;3.00;;
58222;SDS011;44020;50.890;15.796;2023-09-08T13:28:30;3.80;;;3.00;;
58222;SDS011;44020;50.890;15.796;2023-09-08T13:30:57;4.30;;;2.80;;
58222;SDS011;44020;50.890;15.796;2023-09-08T13:33:25;3.80;;;3.00;;
58222;SDS011;44020;50.890;15.796;2023-09-08T13:35:52;3.60;;;2.60;;
58222;SDS011;44020;50.890;15.796;2023-09-08T13:38:20;3.60;;;2.70;;
58222;SDS011;44020;50.890;15.796;2023-09-08T13:40:48;3.50;;;2.80;;
58222;SDS011;44020;50.890;15.796;2023-09-08T13:43:15;5.00;;;3.00;;
58222;SDS011;44020;50.890;15.796;2023-09-08T13:45:42;4.60;;;3.30;;
58222;SDS011;44020;50.890;15.796;2023-09-08T13:48:12;3.70;;;2.90;;
58222;SDS011;44020;50.890;15.796;2023-09-08T13:50:39;4.60;;;2.90;;
58222;SDS011;44020;50.890;15.796;2023-09-08T13:53:07;4.10;;;3.00;;
58222;SDS011;44020;50.890;15.796;2023-09-08T13:55:35;7.00;;;3.00;;
58222;SDS011;44020;50.890;15.796;2023-09-08T13:58:02;3.50;;;2.80;;
58222;SDS011;44020;50.890;15.796;2023-09-08T14:00:30;3.40;;;2.70;;
58222;SDS011;44020;50.890;15.796;2023-09-08T14:02:57;5.60;;;3.20;;
58222;SDS011;44020;50.890;15.796;2023-09-08T14:05:24;5.50;;;2.70;;
58222;SDS011;44020;50.890;15.796;2023-09-08T14:07:54;3.60;;;2.70;;
58222;SDS011;44020;50.890;15.796;2023-09-08T14:10:22;4.10;;;2.90;;
58222;SDS011;44020;50.890;15.796;2023-09-08T14:12:50;4.10;;;3.20;;
58222;SDS011;44020;50.890;15.796;2023-09-08T14:15:18;3.90;;;2.80;;
58222;SDS011;44020;50.890;15.796;2023-09-08T14:17:49;3.00;;;2.40;;
58222;SDS011;44020;50.890;15.796;2023-09-08T14:20:17;3.80;;;2.90;;
58222;SDS011;44020;50.890;15.796;2023-09-08T14:22:44;3.70;;;3.00;;
58222;SDS011;44020;50.890;15.796;2023-09-08T14:25:12;3.50;;;3.00;;
58222;SDS011;44020;50.890;15.796;2023-09-08T14:27:43;4.60;;;2.60;;
58222;SDS011;44020;50.890;15.796;2023-09-08T14:30:10;3.50;;;2.80;;
58222;SDS011;44020;50.890;15.796;2023-09-08T14:32:38;3.80;;;2.80;;
58222;SDS011;44020;50.890;15.796;2023-09-08T14:35:06;3.60;;;3.00;;
58222;SDS011;44020;50.890;15.796;2023-09-08T14:37:33;5.10;;;2.90;;
58222;SDS011;44020;50.890;15.796;2023-09-08T14:40:01;4.50;;;2.70;;
58222;SDS011;44020;50.890;15.796;2023-09-08T14:42:29;4.70;;;3.20;;
58222;SDS011;44020;50.890;15.796;2023-09-08T14:44:57;4.60;;;3.00;;
58222;SDS011;44020;50.890;15.796;2023-09-08T14:47:26;3.80;;;3.20;;